首页
METAR-TAF:

METAR-TAF

机场 :

第聶伯羅彼得羅夫斯克國際機場

第聂伯罗彼得罗夫斯克, 乌克兰

纬度: 48-21-26N, 经度: 035-06-02E, 海拔: 147米

当前天气观测

该预报发布于29分钟前的20:30 UTC
风速10节,风向
温度 23°C
湿度 65%
气压 1018 hPa
能见度10公里或以上
1500米以下无云,无积雨云

METAR: UKDD 222030Z 01005MPS CAVOK 23/16 Q1018 R08/090070 NOSIG

时间: 23:59 (20:59 UTC)

预报

该预报发布于3小时和54分钟前的17:05 UTC
预报有效从22日的 18点(UTC)到 23日的 18点(UTC)
风速12节,风向北转东北
能见度10公里或以上
散云层高于3000英尺
短暂存在
从 23日的 06点(UTC)到 23日的 18点(UTC)
风速17节,风向,有时为27节阵风
多云层高于2000英尺, 积雨云.

TAF: UKDD 221705Z 2218/2318 02006MPS 9999 SCT030 TX33/2312Z TN19/2302Z TEMPO 2306/2318 01009G14MPS BKN020CB

超过4000个机场的气象观测和天气预报(METAR&TAF报告)。

可查询的气象台以黄色和红色小点在地图上表示。

将鼠标移到小点上方,可查看气象台名称。

然后点击查看天气观测和预报。

如需切换地图:点击带黑十字的绿色按钮放大地图;点击带横线的绿色按钮缩小地图;或者点击绿色箭头查看邻近地区的地图。


METAR-TAF: